Time;durP1;ratioP1;P1;durP2;ratioP2;P2;SDS_P1;SDS_P2;PMS_P1;PMS_P2;Temp;Humidity;BMP_temperature;BMP_pressure;BME280_temperature;BME280_humidity;BME280_pressure;Samples;Min_cycle;Max_cycle;Signal;HPM_P1;HPM_P2
2022/07/21 00:01:15;;;;;;;0.00;0.00;;;20.50;99.90;;;;;;5024318;28;20187;-80
2022/07/21 00:03:40;;;;;;;0.00;0.00;;;20.50;99.90;;;;;;5020861;28;20705;-80
2022/07/21 00:06:06;;;;;;;0.00;0.00;;;20.40;99.90;;;;;;5027222;28;20689;-80
2022/07/21 00:08:32;;;;;;;0.00;0.00;;;20.40;99.90;;;;;;5029287;28;20184;-80
2022/07/21 00:10:58;;;;;;;0.00;0.00;;;20.40;99.90;;;;;;5009450;28;20632;-80
2022/07/21 00:13:23;;;;;;;0.00;0.00;;;20.30;99.90;;;;;;5021604;28;20268;-80
2022/07/21 00:15:49;;;;;;;0.00;0.00;;;20.30;99.90;;;;;;5026748;28;20438;-79
2022/07/21 00:18:15;;;;;;;0.00;0.00;;;20.30;99.90;;;;;;5017458;28;20195;-80
2022/07/21 00:20:41;;;;;;;0.00;0.00;;;20.30;99.90;;;;;;5032485;28;20183;-80
2022/07/21 00:23:07;;;;;;;0.00;0.00;;;20.30;99.90;;;;;;5031188;28;20478;-80
2022/07/21 00:25:32;;;;;;;0.00;0.00;;;20.30;99.90;;;;;;5015028;28;20194;-80
2022/07/21 00:27:58;;;;;;;0.00;0.00;;;20.20;99.90;;;;;;5026578;28;20188;-80
2022/07/21 00:30:23;;;;;;;0.00;0.00;;;20.20;99.90;;;;;;5013190;28;20190;-80
2022/07/21 00:32:49;;;;;;;0.00;0.00;;;20.10;99.90;;;;;;5036399;28;20194;-80
2022/07/21 00:35:15;;;;;;;0.00;0.00;;;20.10;99.90;;;;;;5022275;28;20554;-80
2022/07/21 00:37:41;;;;;;;0.00;0.00;;;20.10;99.90;;;;;;5033120;28;20191;-80
2022/07/21 00:40:09;;;;;;;0.00;0.00;;;20.10;99.90;;;;;;5014308;28;20557;-79
2022/07/21 00:42:35;;;;;;;0.00;0.00;;;20.10;99.90;;;;;;5024709;28;20992;-80
2022/07/21 00:45:02;;;;;;;0.00;0.00;;;20.00;99.90;;;;;;5033262;28;20465;-78
2022/07/21 00:47:30;;;;;;;0.00;0.00;;;20.10;99.90;;;;;;5033607;28;20442;-80
2022/07/21 00:49:57;;;;;;;0.00;0.00;;;20.00;99.90;;;;;;5031532;28;20447;-80
2022/07/21 00:52:23;;;;;;;0.00;0.00;;;19.90;99.90;;;;;;5011972;28;21020;-80
2022/07/21 00:54:49;;;;;;;0.00;0.00;;;20.00;99.90;;;;;;5030179;28;20532;-80
2022/07/21 00:57:15;;;;;;;0.00;0.00;;;19.90;99.90;;;;;;5011387;28;20192;-80
2022/07/21 00:59:41;;;;;;;0.10;0.10;;;19.90;99.90;;;;;;5024422;28;20782;-80
2022/07/21 01:02:08;;;;;;;0.00;0.00;;;19.90;99.90;;;;;;5012393;28;20441;-80
2022/07/21 01:04:34;;;;;;;0.00;0.00;;;19.80;99.90;;;;;;5027482;28;20481;-80
2022/07/21 01:07:04;;;;;;;0.10;0.10;;;19.80;99.90;;;;;;5032128;28;20949;-79
2022/07/21 01:09:30;;;;;;;0.00;0.00;;;19.80;99.90;;;;;;5011927;28;20337;-79
2022/07/21 01:11:56;;;;;;;0.00;0.00;;;19.70;99.90;;;;;;5033150;28;20974;-80
2022/07/21 01:14:22;;;;;;;0.00;0.00;;;19.70;99.90;;;;;;5026340;28;20202;-80
2022/07/21 01:16:48;;;;;;;0.00;0.00;;;19.80;99.90;;;;;;5032996;28;20442;-80
2022/07/21 01:19:13;;;;;;;0.00;0.00;;;19.70;99.90;;;;;;5031128;28;20285;-80
2022/07/21 01:21:42;;;;;;;0.00;0.00;;;19.60;99.90;;;;;;5031774;28;20434;-80
2022/07/21 01:24:09;;;;;;;0.00;0.00;;;19.70;99.90;;;;;;5032873;28;20576;-79
2022/07/21 01:26:48;;;;;;;0.00;0.00;;;19.50;99.90;;;;;;5012212;28;20508;-79
2022/07/21 01:29:15;;;;;;;0.00;0.00;;;19.30;99.90;;;;;;5009602;28;20446;-79
2022/07/21 01:31:43;;;;;;;0.00;0.00;;;19.30;99.90;;;;;;5020743;28;20496;-79
2022/07/21 01:34:09;;;;;;;0.00;0.00;;;19.50;99.90;;;;;;5009658;28;20438;-79
2022/07/21 01:36:35;;;;;;;0.10;0.10;;;19.50;99.90;;;;;;5028961;28;20437;-79
2022/07/21 01:41:46;;;;;;;0.00;0.00;;;19.50;99.90;;;;;;5030725;28;20513;-80
2022/07/21 01:44:13;;;;;;;0.00;0.00;;;19.40;99.90;;;;;;5021602;28;20530;-80
2022/07/21 01:46:45;;;;;;;0.10;0.10;;;19.40;99.90;;;;;;5027559;28;20665;-80
2022/07/21 01:49:12;;;;;;;0.00;0.00;;;19.30;99.90;;;;;;5024433;28;20942;-80
2022/07/21 01:51:38;;;;;;;0.10;0.10;;;19.30;99.90;;;;;;5019651;28;20536;-80
2022/07/21 01:54:04;;;;;;;0.00;0.00;;;19.30;99.90;;;;;;5023199;28;20542;-80
2022/07/21 01:56:30;;;;;;;0.00;0.00;;;19.10;99.90;;;;;;5026504;28;20184;-80
2022/07/21 01:58:57;;;;;;;0.10;0.10;;;19.10;99.90;;;;;;5022754;28;20486;-79
2022/07/21 02:01:26;;;;;;;0.00;0.00;;;19.20;99.90;;;;;;5026685;28;20246;-79
2022/07/21 02:03:53;;;;;;;0.00;0.00;;;19.10;99.90;;;;;;5026985;28;20545;-80
2022/07/21 02:06:18;;;;;;;0.10;0.10;;;19.10;99.90;;;;;;5012150;28;20442;-80
2022/07/21 02:08:44;;;;;;;0.00;0.00;;;19.10;99.90;;;;;;5006918;28;20907;-80
2022/07/21 02:11:09;;;;;;;0.00;0.00;;;19.10;99.90;;;;;;5022435;28;20949;-80
2022/07/21 02:13:35;;;;;;;0.07;0.07;;;19.10;99.90;;;;;;5029553;28;20194;-80
2022/07/21 02:16:01;;;;;;;0.00;0.00;;;19.10;99.90;;;;;;5026581;28;20453;-80
2022/07/21 02:18:27;;;;;;;0.10;0.10;;;19.20;99.90;;;;;;5012754;28;20492;-80
2022/07/21 02:20:54;;;;;;;0.10;0.10;;;19.00;99.90;;;;;;5024597;28;20976;-80
2022/07/21 02:23:22;;;;;;;0.00;0.00;;;19.00;99.90;;;;;;5013122;28;20212;-79
2022/07/21 02:25:48;;;;;;;0.10;0.10;;;19.00;99.90;;;;;;5009442;28;20438;-80
2022/07/21 02:28:14;;;;;;;0.07;0.07;;;18.90;99.90;;;;;;5017491;28;20450;-80
2022/07/21 02:30:39;;;;;;;0.10;0.10;;;18.90;99.90;;;;;;5011927;28;20675;-80
2022/07/21 02:33:05;;;;;;;0.00;0.00;;;18.90;99.90;;;;;;5012204;28;20456;-80
2022/07/21 02:35:31;;;;;;;0.00;0.00;;;18.90;99.90;;;;;;5005889;28;20559;-80
2022/07/21 02:37:57;;;;;;;0.00;0.00;;;18.80;99.90;;;;;;5030216;28;20179;-80
2022/07/21 02:40:23;;;;;;;0.10;0.10;;;18.80;99.90;;;;;;5004933;28;20438;-80
2022/07/21 02:42:48;;;;;;;0.10;0.10;;;18.60;99.90;;;;;;5022498;28;20313;-80
2022/07/21 02:45:14;;;;;;;0.00;0.00;;;18.70;99.90;;;;;;5027163;28;20694;-80
2022/07/21 02:47:50;;;;;;;0.10;0.10;;;18.80;99.90;;;;;;5031846;28;20218;-80
2022/07/21 02:50:16;;;;;;;0.10;0.10;;;18.90;99.90;;;;;;5024666;28;20203;-80
2022/07/21 02:52:41;;;;;;;0.10;0.10;;;18.80;99.90;;;;;;5029267;28;20456;-80
2022/07/21 02:55:08;;;;;;;0.10;0.10;;;18.80;99.90;;;;;;5025456;28;20538;-80
2022/07/21 02:57:33;;;;;;;0.10;0.10;;;18.80;99.90;;;;;;5014853;28;20240;-79
2022/07/21 02:59:59;;;;;;;0.10;0.10;;;18.90;99.90;;;;;;4989859;28;21021;-79
2022/07/21 03:02:24;;;;;;;0.10;0.00;;;18.80;99.90;;;;;;5006480;28;20192;-80
2022/07/21 03:04:50;;;;;;;0.10;0.10;;;19.00;99.90;;;;;;4987290;28;20193;-80
2022/07/21 03:07:15;;;;;;;0.10;0.10;;;19.20;99.90;;;;;;5009791;28;20256;-80
2022/07/21 03:09:41;;;;;;;0.10;0.10;;;19.00;99.90;;;;;;4996081;28;20251;-80
2022/07/21 03:12:07;;;;;;;0.10;0.10;;;19.00;99.90;;;;;;5016806;28;20323;-80
2022/07/21 03:14:32;;;;;;;0.10;0.10;;;19.00;99.90;;;;;;4990471;28;20187;-80
2022/07/21 03:16:58;;;;;;;0.10;0.10;;;19.10;99.90;;;;;;5009373;28;20270;-80
2022/07/21 03:19:23;;;;;;;0.10;0.10;;;19.00;99.90;;;;;;4993135;28;20234;-80
2022/07/21 03:21:49;;;;;;;0.10;0.10;;;19.10;99.90;;;;;;5000204;28;20196;-80
2022/07/21 03:24:14;;;;;;;0.10;0.10;;;19.00;99.90;;;;;;4997229;28;20220;-80
2022/07/21 03:26:40;;;;;;;0.10;0.10;;;18.90;99.90;;;;;;5004025;28;20279;-80
2022/07/21 03:29:05;;;;;;;0.10;0.10;;;18.90;99.90;;;;;;4988281;28;20238;-80
2022/07/21 03:31:31;;;;;;;0.10;0.10;;;18.70;99.90;;;;;;5006926;28;20671;-80
2022/07/21 03:33:56;;;;;;;0.10;0.10;;;18.80;99.90;;;;;;5013642;28;20176;-80
2022/07/21 03:36:22;;;;;;;0.10;0.10;;;18.80;99.90;;;;;;4997994;28;20192;-80
2022/07/21 03:38:49;;;;;;;0.10;0.10;;;18.60;99.90;;;;;;5007953;28;20562;-80
2022/07/21 03:41:15;;;;;;;0.10;0.10;;;18.50;99.90;;;;;;5015513;28;20184;-80
2022/07/21 03:43:40;;;;;;;0.10;0.10;;;18.60;99.90;;;;;;5011783;28;20527;-80
2022/07/21 03:46:06;;;;;;;0.10;0.10;;;18.60;99.90;;;;;;5006318;28;20600;-80
2022/07/21 03:48:31;;;;;;;0.10;0.10;;;18.60;99.90;;;;;;5010212;28;20203;-80
2022/07/21 03:50:57;;;;;;;0.10;0.10;;;18.50;99.90;;;;;;5006515;28;20192;-80
2022/07/21 03:53:23;;;;;;;0.10;0.10;;;18.40;99.90;;;;;;5009442;28;20196;-80
2022/07/21 03:55:49;;;;;;;0.10;0.10;;;18.40;99.90;;;;;;5001722;28;20192;-80
2022/07/21 03:58:14;;;;;;;0.07;0.00;;;18.50;99.90;;;;;;5004765;28;20470;-80
2022/07/21 04:00:42;;;;;;;0.10;0.00;;;18.50;99.90;;;;;;5025714;28;20744;-80
2022/07/21 04:03:09;;;;;;;0.10;0.10;;;18.40;99.90;;;;;;5021314;28;20231;-79
2022/07/21 04:05:37;;;;;;;0.10;0.10;;;18.50;99.90;;;;;;5027574;28;20527;-79
2022/07/21 04:08:03;;;;;;;0.10;0.10;;;18.50;99.90;;;;;;5017571;28;21033;-80
2022/07/21 04:10:32;;;;;;;0.10;0.10;;;18.50;99.90;;;;;;5010986;28;20589;-80
2022/07/21 04:13:01;;;;;;;0.10;0.10;;;18.60;99.90;;;;;;5016701;28;20969;-80
2022/07/21 04:15:27;;;;;;;0.10;0.10;;;18.60;99.90;;;;;;5027556;28;20497;-80
2022/07/21 04:17:53;;;;;;;0.10;0.10;;;18.50;99.90;;;;;;5024805;28;21070;-79
2022/07/21 04:20:19;;;;;;;0.10;0.10;;;18.60;99.90;;;;;;5021588;28;20517;-80
2022/07/21 04:22:46;;;;;;;0.10;0.10;;;18.50;99.90;;;;;;5022415;28;20682;-79
2022/07/21 04:25:12;;;;;;;0.10;0.10;;;18.60;99.90;;;;;;5011337;28;20781;-80
2022/07/21 04:27:38;;;;;;;0.10;0.10;;;18.60;99.90;;;;;;5004731;28;20442;-80
2022/07/21 04:30:06;;;;;;;0.10;0.00;;;18.60;99.90;;;;;;5007757;28;20857;-80
2022/07/21 04:32:31;;;;;;;0.10;0.10;;;18.70;99.90;;;;;;5009292;28;20183;-80
2022/07/21 04:34:57;;;;;;;0.10;0.10;;;18.80;99.90;;;;;;5025177;28;20527;-80
2022/07/21 04:37:22;;;;;;;0.10;0.10;;;18.80;99.90;;;;;;5019837;28;20187;-80
2022/07/21 04:39:48;;;;;;;0.10;0.10;;;18.90;99.90;;;;;;5021994;28;20608;-80
2022/07/21 04:42:14;;;;;;;0.10;0.10;;;19.00;99.90;;;;;;5009743;28;20188;-80
2022/07/21 04:44:39;;;;;;;0.10;0.10;;;19.00;99.90;;;;;;5026329;28;20234;-80
2022/07/21 04:47:05;;;;;;;0.10;0.10;;;19.10;99.90;;;;;;5027398;28;20187;-80
2022/07/21 04:49:31;;;;;;;0.10;0.00;;;19.10;99.90;;;;;;5025446;28;20191;-79
2022/07/21 04:51:56;;;;;;;0.10;0.00;;;19.00;99.90;;;;;;4999399;28;20176;-80
2022/07/21 04:54:22;;;;;;;0.10;0.10;;;19.10;99.90;;;;;;5029734;28;20183;-80
2022/07/21 04:56:49;;;;;;;0.10;0.10;;;19.10;99.90;;;;;;5010547;28;20257;-80
2022/07/21 04:59:14;;;;;;;0.10;0.10;;;19.00;99.90;;;;;;5026081;28;20241;-80
2022/07/21 05:01:41;;;;;;;0.10;0.10;;;19.00;99.90;;;;;;5022048;28;20458;-80
2022/07/21 05:04:06;;;;;;;0.10;0.10;;;18.90;99.90;;;;;;5026419;28;20489;-80
2022/07/21 05:06:33;;;;;;;0.10;0.10;;;18.90;99.90;;;;;;5030570;28;20191;-80
2022/07/21 05:08:58;;;;;;;0.10;0.10;;;19.10;99.90;;;;;;5009700;28;20188;-79
2022/07/21 05:11:24;;;;;;;0.10;0.10;;;19.30;99.90;;;;;;5008706;28;20449;-80
2022/07/21 05:13:50;;;;;;;0.10;0.00;;;19.30;99.90;;;;;;4997283;28;20210;-79
2022/07/21 05:16:16;;;;;;;0.10;0.10;;;19.30;99.90;;;;;;5026679;28;20983;-79
2022/07/21 05:18:41;;;;;;;0.10;0.10;;;19.30;99.90;;;;;;5021814;28;20446;-79
2022/07/21 05:21:07;;;;;;;0.10;0.10;;;19.20;99.90;;;;;;5024424;28;20561;-79
2022/07/21 05:23:32;;;;;;;0.10;0.10;;;19.30;99.90;;;;;;5030856;28;20223;-79
2022/07/21 05:25:58;;;;;;;0.10;0.00;;;19.20;99.90;;;;;;5004343;28;20786;-80
2022/07/21 05:28:27;;;;;;;0.10;0.10;;;19.40;99.90;;;;;;5028148;28;20188;-80
2022/07/21 05:30:52;;;;;;;0.10;0.10;;;19.50;99.90;;;;;;5029202;28;20761;-80
2022/07/21 05:33:18;;;;;;;0.10;0.10;;;19.40;99.90;;;;;;5026768;28;20532;-80
2022/07/21 05:35:43;;;;;;;0.10;0.00;;;19.40;99.90;;;;;;5030164;28;20245;-80
2022/07/21 05:38:09;;;;;;;0.10;0.10;;;19.40;99.90;;;;;;5028437;28;20903;-79
2022/07/21 05:40:34;;;;;;;0.10;0.10;;;19.30;99.90;;;;;;5005421;28;20216;-80
2022/07/21 05:43:00;;;;;;;0.10;0.10;;;19.40;99.90;;;;;;5010940;28;20257;-79
2022/07/21 05:45:25;;;;;;;0.10;0.10;;;19.60;99.90;;;;;;5004941;28;20535;-79
2022/07/21 05:47:51;;;;;;;0.10;0.10;;;19.60;99.90;;;;;;5022607;28;20187;-79
2022/07/21 05:50:16;;;;;;;0.10;0.00;;;19.70;99.90;;;;;;5028073;28;20278;-79
2022/07/21 05:52:42;;;;;;;0.10;0.10;;;19.70;99.90;;;;;;5028619;28;20655;-79
2022/07/21 05:55:08;;;;;;;0.10;0.10;;;19.70;99.90;;;;;;5029392;28;20194;-79
2022/07/21 05:57:33;;;;;;;0.10;0.00;;;20.00;99.90;;;;;;5021942;28;20254;-79
2022/07/21 05:59:59;;;;;;;0.10;0.10;;;20.20;99.90;;;;;;5026928;28;20460;-79
2022/07/21 06:02:30;;;;;;;0.10;0.00;;;20.20;99.90;;;;;;5004413;28;20572;-79
2022/07/21 06:04:56;;;;;;;0.10;0.00;;;20.30;99.90;;;;;;5028956;28;20195;-79
2022/07/21 06:07:22;;;;;;;0.10;0.10;;;20.10;99.90;;;;;;5017663;28;20451;-79
2022/07/21 06:09:48;;;;;;;0.10;0.10;;;20.10;99.90;;;;;;5003471;28;20194;-80
2022/07/21 06:12:14;;;;;;;0.10;0.00;;;20.30;99.90;;;;;;5023290;28;20445;-79
2022/07/21 06:14:39;;;;;;;0.10;0.10;;;20.30;99.90;;;;;;5026155;28;20187;-79
2022/07/21 06:17:05;;;;;;;0.10;0.10;;;20.20;99.90;;;;;;4998599;28;20736;-79
2022/07/21 06:19:31;;;;;;;0.10;0.10;;;20.40;99.90;;;;;;5025572;28;20667;-79
2022/07/21 06:21:57;;;;;;;0.10;0.10;;;20.40;99.90;;;;;;5010077;28;20206;-80
2022/07/21 06:24:22;;;;;;;0.10;0.00;;;20.50;99.90;;;;;;5023464;28;20569;-79
2022/07/21 06:26:48;;;;;;;0.10;0.10;;;20.60;99.90;;;;;;5023423;28;20189;-79
2022/07/21 06:29:14;;;;;;;0.10;0.00;;;20.90;99.90;;;;;;5008319;28;20245;-79
2022/07/21 06:31:40;;;;;;;0.10;0.10;;;21.30;99.90;;;;;;5018085;28;20450;-80
2022/07/21 06:34:05;;;;;;;0.10;0.00;;;21.30;99.90;;;;;;5028618;28;20195;-80
2022/07/21 06:36:31;;;;;;;0.10;0.00;;;21.00;99.90;;;;;;5008501;28;20188;-79
2022/07/21 06:38:57;;;;;;;0.10;0.00;;;21.10;99.90;;;;;;5024455;28;20196;-79
2022/07/21 06:41:23;;;;;;;0.10;0.00;;;21.20;99.90;;;;;;5026370;28;20632;-79
2022/07/21 06:43:49;;;;;;;0.10;0.00;;;21.20;99.90;;;;;;5016716;28;20490;-78
2022/07/21 06:46:14;;;;;;;0.10;0.00;;;21.00;99.90;;;;;;5025744;28;20202;-79
2022/07/21 06:48:39;;;;;;;0.10;0.10;;;21.10;99.90;;;;;;5009044;28;20294;-79
2022/07/21 06:51:05;;;;;;;0.10;0.00;;;21.20;99.90;;;;;;5022866;28;20913;-79
2022/07/21 06:53:31;;;;;;;0.10;0.10;;;21.10;99.90;;;;;;5026065;28;20278;-78
2022/07/21 06:55:57;;;;;;;0.10;0.10;;;21.20;99.90;;;;;;5027845;28;20187;-79
2022/07/21 06:58:24;;;;;;;0.10;0.00;;;21.10;99.90;;;;;;5029134;28;20242;-79
2022/07/21 07:00:51;;;;;;;0.10;0.00;;;21.30;99.90;;;;;;5025323;28;21017;-79
2022/07/21 07:03:17;;;;;;;0.10;0.00;;;21.40;99.90;;;;;;5024702;28;20486;-79
2022/07/21 07:05:44;;;;;;;0.10;0.00;;;21.40;99.90;;;;;;4998111;28;20442;-79
2022/07/21 07:08:10;;;;;;;0.10;0.00;;;21.30;99.90;;;;;;4997475;28;20481;-79
2022/07/21 07:10:36;;;;;;;0.10;0.00;;;21.40;99.90;;;;;;5015658;28;20449;-80
2022/07/21 07:13:01;;;;;;;0.10;0.00;;;21.50;99.90;;;;;;5029865;28;20446;-79
2022/07/21 07:15:28;;;;;;;0.10;0.00;;;21.40;99.90;;;;;;5007957;28;20183;-79
2022/07/21 07:17:53;;;;;;;0.10;0.00;;;21.40;99.90;;;;;;5014373;28;20183;-80
2022/07/21 07:20:19;;;;;;;0.10;0.00;;;21.40;99.90;;;;;;5029168;28;20965;-79
2022/07/21 07:22:45;;;;;;;0.10;0.00;;;21.50;99.90;;;;;;5013519;28;20187;-79
2022/07/21 07:25:10;;;;;;;0.10;0.00;;;21.50;99.90;;;;;;5021986;28;20609;-79
2022/07/21 07:27:36;;;;;;;0.10;0.00;;;21.60;99.90;;;;;;5026388;28;20191;-79
2022/07/21 07:30:03;;;;;;;0.10;0.00;;;21.60;99.90;;;;;;5007575;28;20218;-79
2022/07/21 07:32:29;;;;;;;0.10;0.00;;;21.70;99.90;;;;;;5029047;28;20191;-79
2022/07/21 07:34:54;;;;;;;0.10;0.00;;;21.70;99.90;;;;;;5027780;28;20941;-79
2022/07/21 07:37:20;;;;;;;0.10;0.00;;;21.70;99.90;;;;;;5010211;28;20706;-79
2022/07/21 07:39:45;;;;;;;0.10;0.00;;;21.70;99.90;;;;;;5009235;28;20183;-79
2022/07/21 07:42:11;;;;;;;0.10;0.00;;;21.70;99.90;;;;;;5024649;28;20188;-79
2022/07/21 07:44:36;;;;;;;0.10;0.00;;;21.70;99.90;;;;;;5027208;28;20220;-79
2022/07/21 07:47:03;;;;;;;0.10;0.00;;;21.80;99.90;;;;;;5012379;28;20666;-79
2022/07/21 07:49:30;;;;;;;0.10;0.00;;;22.00;99.90;;;;;;5013362;28;20187;-79
2022/07/21 07:51:56;;;;;;;0.10;0.00;;;22.20;99.90;;;;;;5011957;28;20449;-80
2022/07/21 07:54:21;;;;;;;0.10;0.00;;;22.40;99.90;;;;;;5004565;28;20434;-79
2022/07/21 07:56:47;;;;;;;0.10;0.00;;;22.60;99.90;;;;;;5017347;28;20191;-77
2022/07/21 07:59:13;;;;;;;0.10;0.00;;;22.90;99.90;;;;;;5007317;28;20725;-77
2022/07/21 08:01:38;;;;;;;0.10;0.00;;;23.30;99.90;;;;;;4998311;28;20183;-77
2022/07/21 08:04:04;;;;;;;0.10;0.00;;;23.40;99.90;;;;;;4997310;28;20327;-77
2022/07/21 08:06:29;;;;;;;0.10;0.00;;;23.40;99.90;;;;;;4990391;28;20185;-78
2022/07/21 08:08:55;;;;;;;0.10;0.00;;;23.30;99.90;;;;;;4995685;28;20185;-76
2022/07/21 08:11:20;;;;;;;0.10;0.00;;;23.00;99.90;;;;;;5014347;28;20595;-77
2022/07/21 08:13:46;;;;;;;0.10;0.00;;;22.90;99.90;;;;;;4995470;28;20216;-79
2022/07/21 08:16:14;;;;;;;0.10;0.00;;;22.70;99.90;;;;;;5000975;28;20195;-79
2022/07/21 08:18:41;;;;;;;0.10;0.00;;;22.60;99.90;;;;;;4996879;28;20185;-79
2022/07/21 08:21:06;;;;;;;0.10;0.00;;;22.60;99.90;;;;;;5005593;28;20458;-79
2022/07/21 08:23:32;;;;;;;0.10;0.00;;;22.70;99.90;;;;;;5000322;28;20486;-77
2022/07/21 08:25:57;;;;;;;0.10;0.00;;;22.80;99.90;;;;;;4985613;28;20199;-77
2022/07/21 08:28:23;;;;;;;0.10;0.00;;;22.80;99.90;;;;;;4991811;28;20648;-77
2022/07/21 08:30:48;;;;;;;0.10;0.00;;;22.60;99.90;;;;;;5004098;28;20283;-77
2022/07/21 08:33:14;;;;;;;0.10;0.00;;;22.50;99.90;;;;;;4996672;28;20195;-78
2022/07/21 08:35:40;;;;;;;0.10;0.10;;;22.20;99.90;;;;;;4988311;28;20707;-77
2022/07/21 08:38:08;;;;;;;0.10;0.00;;;22.00;99.90;;;;;;4998472;28;20196;-78
2022/07/21 08:40:36;;;;;;;0.10;0.00;;;22.00;99.90;;;;;;5000591;28;20188;-79
2022/07/21 08:43:02;;;;;;;0.10;0.00;;;22.00;99.90;;;;;;5009661;28;20470;-79
2022/07/21 08:45:27;;;;;;;0.10;0.00;;;21.90;99.90;;;;;;5019837;28;20814;-79
2022/07/21 08:47:55;;;;;;;0.10;0.00;;;21.90;99.90;;;;;;5016474;28;20443;-79
2022/07/21 08:50:27;;;;;;;0.10;0.00;;;21.80;99.90;;;;;;5013979;28;20520;-79
2022/07/21 08:52:53;;;;;;;0.10;0.00;;;21.80;99.90;;;;;;5007139;28;20455;-79
2022/07/21 08:55:19;;;;;;;0.10;0.00;;;21.70;99.90;;;;;;5010110;28;20845;-79
2022/07/21 08:57:45;;;;;;;0.10;0.00;;;21.80;99.90;;;;;;5013678;28;21231;-78
2022/07/21 09:00:11;;;;;;;0.10;0.00;;;22.00;99.90;;;;;;5026289;28;20446;-79
2022/07/21 09:02:37;;;;;;;0.10;0.00;;;22.00;99.90;;;;;;5033489;28;20187;-79
2022/07/21 09:05:05;;;;;;;0.10;0.00;;;22.30;99.90;;;;;;5010021;28;20542;-79
2022/07/21 09:07:51;;;;;;;0.10;0.00;;;22.50;99.90;;;;;;5025141;28;20453;-77
2022/07/21 09:10:23;;;;;;;0.10;0.00;;;22.50;99.90;;;;;;5029486;28;20454;-79
2022/07/21 09:12:51;;;;;;;0.10;0.00;;;22.30;99.90;;;;;;5021456;28;20446;-79
2022/07/21 09:15:19;;;;;;;0.10;0.00;;;22.10;99.90;;;;;;5004631;28;20466;-79
2022/07/21 09:17:45;;;;;;;0.10;0.00;;;21.90;99.90;;;;;;5014031;28;20450;-79
2022/07/21 09:20:24;;;;;;;0.10;0.10;;;21.90;99.90;;;;;;5023266;28;20458;-79
2022/07/21 09:23:11;;;;;;;0.10;0.00;;;21.80;99.90;;;;;;5026017;28;20442;-79
2022/07/21 09:25:41;;;;;;;0.10;0.00;;;21.90;99.90;;;;;;5025768;28;20483;-79
2022/07/21 09:28:28;;;;;;;0.10;0.10;;;21.90;99.90;;;;;;5008744;28;20455;-79
2022/07/21 09:31:00;;;;;;;0.10;0.00;;;21.60;99.90;;;;;;5003415;28;20533;-79
2022/07/21 09:33:45;;;;;;;0.10;0.00;;;21.60;99.90;;;;;;5024284;28;20526;-79
2022/07/21 09:36:14;;;;;;;0.10;0.00;;;21.60;99.90;;;;;;5027394;28;20891;-79
2022/07/21 09:38:56;;;;;;;0.10;0.00;;;22.00;99.90;;;;;;5026652;28;20846;-79
2022/07/21 09:41:24;;;;;;;0.10;0.00;;;22.20;99.90;;;;;;5010141;28;20520;-80
2022/07/21 09:43:55;;;;;;;0.10;0.00;;;22.30;99.90;;;;;;5026595;28;20485;-80
2022/07/21 09:46:29;;;;;;;0.10;0.00;;;22.30;99.90;;;;;;5025170;28;20541;-79
2022/07/21 09:49:04;;;;;;;0.10;0.00;;;22.30;99.90;;;;;;5012688;28;20453;-79
2022/07/21 09:51:37;;;;;;;0.10;0.00;;;23.10;99.90;;;;;;5028104;28;20552;-77
2022/07/21 09:54:05;;;;;;;0.10;0.00;;;23.90;99.90;;;;;;5032904;28;20430;-78
2022/07/21 09:56:36;;;;;;;0.10;0.00;;;24.10;99.90;;;;;;5030129;28;20449;-76
2022/07/21 09:59:04;;;;;;;0.10;0.00;;;24.30;99.90;;;;;;5026295;28;20973;-77
2022/07/21 10:01:30;;;;;;;0.10;0.00;;;24.50;99.90;;;;;;5016192;28;20550;-76
2022/07/21 10:03:57;;;;;;;0.10;0.00;;;24.90;99.90;;;;;;5004841;28;21433;-78
2022/07/21 10:06:27;;;;;;;0.10;0.00;;;24.70;99.90;;;;;;5025197;28;20301;-77
2022/07/21 10:08:54;;;;;;;0.10;0.00;;;25.30;99.90;;;;;;5031443;28;20458;-78
2022/07/21 10:11:21;;;;;;;0.10;0.00;;;25.60;99.90;;;;;;5024511;28;20449;-78
2022/07/21 10:13:46;;;;;;;0.10;0.00;;;25.70;99.90;;;;;;5027091;28;20442;-77
2022/07/21 10:16:12;;;;;;;0.10;0.00;;;25.60;99.90;;;;;;5030842;28;20444;-78
2022/07/21 10:18:52;;;;;;;0.10;0.00;;;25.70;99.90;;;;;;5008163;28;20198;-78
2022/07/21 10:21:37;;;;;;;0.10;0.00;;;25.70;99.90;;;;;;5000968;28;20430;-78
2022/07/21 10:24:04;;;;;;;0.10;0.00;;;25.40;99.90;;;;;;5026676;28;20493;-79
2022/07/21 10:26:30;;;;;;;0.10;0.00;;;25.30;99.90;;;;;;5031047;28;20446;-78
2022/07/21 10:28:56;;;;;;;0.10;0.00;;;25.10;99.90;;;;;;5027740;28;20457;-77
2022/07/21 10:31:28;;;;;;;0.10;0.00;;;25.10;99.90;;;;;;5026206;28;20229;-77
2022/07/21 10:34:03;;;;;;;0.10;0.00;;;24.50;99.90;;;;;;5030966;28;20213;-78
2022/07/21 10:36:28;;;;;;;0.10;0.00;;;24.40;99.90;;;;;;5020109;28;20449;-77
2022/07/21 10:39:06;;;;;;;0.10;0.00;;;24.20;99.90;;;;;;5031187;28;21129;-78
2022/07/21 10:41:42;;;;;;;0.10;0.00;;;24.30;99.90;;;;;;5022646;28;20215;-78
2022/07/21 10:44:26;;;;;;;0.10;0.00;;;24.10;99.90;;;;;;5019292;28;20493;-78
2022/07/21 10:47:20;;;;;;;0.10;0.00;;;24.20;99.90;;;;;;5028530;28;22249;-78
2022/07/21 10:49:58;;;;;;;0.10;0.00;;;24.10;99.90;;;;;;5020446;28;20464;-79
2022/07/21 10:52:38;;;;;;;0.10;0.00;;;24.10;99.90;;;;;;5005627;28;20443;-78
2022/07/21 10:55:09;;;;;;;0.10;0.00;;;24.20;99.90;;;;;;5028459;28;20556;-77
2022/07/21 10:57:36;;;;;;;0.10;0.00;;;24.40;99.90;;;;;;5021906;28;20466;-78
2022/07/21 11:00:27;;;;;;;0.10;0.00;;;24.30;99.90;;;;;;5001225;28;20446;-77
2022/07/21 11:02:59;;;;;;;0.10;0.00;;;24.20;99.90;;;;;;4997746;28;20454;-77
2022/07/21 11:05:27;;;;;;;0.10;0.00;;;24.10;99.90;;;;;;5029436;28;20553;-77
2022/07/21 11:08:13;;;;;;;0.10;0.00;;;24.10;99.90;;;;;;5010497;28;20457;-78
2022/07/21 11:10:46;;;;;;;0.10;0.00;;;24.30;99.90;;;;;;5028897;28;20446;-78
2022/07/21 11:13:13;;;;;;;0.10;0.00;;;25.60;99.90;;;;;;5009204;28;20451;-78
2022/07/21 11:15:50;;;;;;;0.10;0.00;;;26.20;99.90;;;;;;5011325;28;20790;-78
2022/07/21 11:18:28;;;;;;;0.10;0.00;;;26.40;99.90;;;;;;5029547;28;20453;-77
2022/07/21 11:21:11;;;;;;;0.10;0.00;;;27.00;99.90;;;;;;5022743;28;20473;-78
2022/07/21 11:23:48;;;;;;;0.10;0.00;;;28.20;99.90;;;;;;5009425;28;20483;-77
2022/07/21 11:26:23;;;;;;;0.10;0.00;;;28.30;99.90;;;;;;5022844;28;20494;-78
2022/07/21 11:29:06;;;;;;;0.10;0.00;;;28.40;99.90;;;;;;5022594;28;20439;-78
2022/07/21 11:31:32;;;;;;;0.10;0.00;;;27.90;99.90;;;;;;5011577;28;20415;-77
2022/07/21 11:33:57;;;;;;;0.10;0.00;;;27.10;99.90;;;;;;5029077;28;20454;-77
2022/07/21 11:36:29;;;;;;;0.10;0.00;;;26.70;99.90;;;;;;5030624;28;20186;-78
2022/07/21 11:39:07;;;;;;;0.10;0.00;;;27.20;99.90;;;;;;5004450;28;20226;-77
2022/07/21 11:41:34;;;;;;;0.10;0.00;;;27.40;99.90;;;;;;5027333;28;20438;-77
2022/07/21 11:44:00;;;;;;;0.10;0.00;;;27.30;99.90;;;;;;5023109;28;21986;-77
2022/07/21 11:46:25;;;;;;;0.10;0.00;;;27.50;99.90;;;;;;5027598;28;20434;-78
2022/07/21 11:49:06;;;;;;;0.10;0.00;;;26.80;99.90;;;;;;5027707;28;20195;-76
2022/07/21 11:51:33;;;;;;;0.10;0.00;;;26.30;99.90;;;;;;5026615;28;20211;-77
2022/07/21 11:53:58;;;;;;;0.10;0.00;;;26.20;99.90;;;;;;5024113;28;20447;-78
2022/07/21 11:56:24;;;;;;;0.10;0.00;;;26.20;99.90;;;;;;5007074;28;20434;-79
2022/07/21 11:58:49;;;;;;;0.10;0.00;;;26.30;99.90;;;;;;5008299;28;20707;-78
2022/07/21 12:01:15;;;;;;;0.10;0.00;;;25.80;99.90;;;;;;5002620;28;20197;-80
2022/07/21 12:03:48;;;;;;;0.10;0.00;;;25.20;99.90;;;;;;5004375;28;20212;-80
2022/07/21 12:06:14;;;;;;;0.10;0.00;;;25.00;99.90;;;;;;5009078;28;20759;-79
2022/07/21 12:08:43;;;;;;;0.10;0.00;;;24.80;99.90;;;;;;5003608;28;20478;-80
2022/07/21 12:11:12;;;;;;;0.10;0.00;;;24.80;99.90;;;;;;5010319;28;20551;-80
2022/07/21 12:13:58;;;;;;;0.10;0.00;;;24.80;99.90;;;;;;4985399;28;20455;-79
2022/07/21 12:16:24;;;;;;;0.10;0.00;;;25.70;99.90;;;;;;5000801;28;20444;-80
2022/07/21 12:19:08;;;;;;;0.10;0.00;;;26.00;99.90;;;;;;4998669;28;20479;-81
2022/07/21 12:21:44;;;;;;;0.10;0.00;;;25.60;99.90;;;;;;4998359;28;20447;-80
2022/07/21 12:24:11;;;;;;;0.10;0.00;;;25.60;99.90;;;;;;4990839;28;20487;-81
2022/07/21 12:26:36;;;;;;;0.10;0.00;;;25.80;99.90;;;;;;4989629;28;20428;-81
2022/07/21 12:29:02;;;;;;;0.10;0.00;;;25.30;99.90;;;;;;4978676;28;20470;-80
2022/07/21 12:31:27;;;;;;;0.10;0.00;;;25.00;99.90;;;;;;5008333;28;20678;-79
2022/07/21 12:33:55;;;;;;;0.10;0.00;;;25.00;99.90;;;;;;5003982;28;20218;-78
2022/07/21 12:36:21;;;;;;;0.10;0.00;;;24.90;99.90;;;;;;5002106;28;20271;-79
2022/07/21 12:38:49;;;;;;;0.10;0.00;;;25.00;99.90;;;;;;4994172;28;21008;-79
2022/07/21 12:41:22;;;;;;;0.10;0.00;;;25.60;99.90;;;;;;4986220;28;20188;-80
2022/07/21 12:44:01;;;;;;;0.10;0.00;;;26.00;99.90;;;;;;4982412;28;20569;-80
2022/07/21 12:46:31;;;;;;;0.10;0.00;;;26.20;99.90;;;;;;4995030;28;20443;-80
2022/07/21 12:49:04;;;;;;;0.10;0.00;;;25.50;99.90;;;;;;4997387;28;20536;-80
2022/07/21 12:51:31;;;;;;;0.10;0.00;;;25.40;99.90;;;;;;4993986;28;20554;-81
2022/07/21 12:53:57;;;;;;;0.10;0.00;;;25.10;99.90;;;;;;5004636;28;20547;-81